Augusta, West Virginia
Current Conditions -  °F | °C
As of 4:17 PM on Friday 24 Oct 2014 (Local Time) from KCBE Reporting Station
Clear Clear  
Wind Chill: 17°   Ceiling: Unl
Heat Index: 17°   Visibility: 10mi
Dew Point:   Wind: 3mph
Humidity: 34%   Direction: 320°NW
Pressure: 30.01"   Gusts: NA
Location:  39.3°N, 78.64°W
Report Text: KCBE 242017Z AUTO 32003KT 10SM CLR 17/01 A3001 RMK AO1
Loading
Personal Weather Stations






























Interactive Weather Map
Tropical Storm Tracking
New forecast layout! Learn more

10-Day Weather Forecast

Advertisements
Track Severe Weather on mobile